Time;durP1;ratioP1;P1;durP2;ratioP2;P2;SDS_P1;SDS_P2;PMS_P1;PMS_P2;Temp;Humidity;BMP_temperature;BMP_pressure;BME280_temperature;BME280_humidity;BME280_pressure;Samples;Min_cycle;Max_cycle;Signal;HPM_P1;HPM_P2
2021/01/18 00:00:43;;;;;;;682.33;461.90;;;;;21.90;101145.00;;;;2067550;28;20218;-65
2021/01/18 00:01:44;;;;;;;669.67;447.97;;;;;21.80;101148.00;;;;2065438;28;20211;-65
2021/01/18 00:02:44;;;;;;;666.33;451.20;;;;;21.80;101145.00;;;;2067621;28;20277;-65
2021/01/18 00:03:44;;;;;;;652.43;434.73;;;;;21.80;101150.00;;;;2056729;28;20266;-65
2021/01/18 00:04:45;;;;;;;640.50;434.70;;;;;21.80;101146.00;;;;2067308;28;20230;-65
2021/01/18 00:05:45;;;;;;;628.63;421.80;;;;;21.80;101156.00;;;;2065267;28;20208;-65
2021/01/18 00:06:45;;;;;;;622.83;415.53;;;;;21.80;101140.00;;;;2068378;28;20202;-65
2021/01/18 00:07:50;;;;;;;621.40;417.50;;;;;21.80;101147.00;;;;2064160;28;20619;-65
2021/01/18 00:08:50;;;;;;;605.13;402.92;;;;;21.80;101142.00;;;;2068204;28;20353;-65
2021/01/18 00:09:51;;;;;;;613.53;411.27;;;;;21.80;101146.00;;;;2061573;28;20725;-65
2021/01/18 00:10:51;;;;;;;606.83;402.40;;;;;21.80;101141.00;;;;2067182;28;20199;-65
2021/01/18 00:11:51;;;;;;;579.93;390.10;;;;;21.80;101137.00;;;;2070896;28;20205;-65
2021/01/18 00:12:53;;;;;;;580.57;385.13;;;;;21.80;101151.00;;;;2070809;28;20199;-65
2021/01/18 00:13:54;;;;;;;563.70;378.13;;;;;21.80;101140.00;;;;2063402;28;20215;-65
2021/01/18 00:14:54;;;;;;;569.83;374.95;;;;;21.80;101144.00;;;;2068542;28;20230;-65
2021/01/18 00:15:55;;;;;;;551.23;371.53;;;;;21.80;101145.00;;;;2064013;28;20215;-66
2021/01/18 00:16:55;;;;;;;566.33;356.37;;;;;21.80;101145.00;;;;2069691;28;20264;-65
2021/01/18 00:17:55;;;;;;;543.40;361.13;;;;;21.70;101150.00;;;;2063512;28;20240;-65
2021/01/18 00:18:56;;;;;;;551.03;357.00;;;;;21.70;101147.00;;;;2069816;28;20705;-65
2021/01/18 00:19:56;;;;;;;540.87;357.47;;;;;21.70;101149.00;;;;2070948;28;20567;-65
2021/01/18 00:20:57;;;;;;;525.17;342.53;;;;;21.70;101157.00;;;;2063563;28;20629;-65
2021/01/18 00:21:57;;;;;;;524.73;346.43;;;;;21.70;101159.00;;;;2069530;28;20978;-66
2021/01/18 00:22:58;;;;;;;518.47;335.13;;;;;21.70;101156.00;;;;2064402;28;20281;-65
2021/01/18 00:23:58;;;;;;;499.23;324.27;;;;;21.70;101162.00;;;;2071649;28;20206;-65
2021/01/18 00:24:58;;;;;;;494.43;318.17;;;;;21.70;101158.00;;;;2078582;28;20589;-65
2021/01/18 00:25:58;;;;;;;493.93;321.00;;;;;21.70;101156.00;;;;2063798;28;20776;-65
2021/01/18 00:26:59;;;;;;;491.63;311.63;;;;;21.70;101157.00;;;;2055421;28;20227;-65
2021/01/18 00:27:59;;;;;;;496.60;319.60;;;;;21.70;101150.00;;;;2071040;28;20225;-65
2021/01/18 00:28:59;;;;;;;480.57;303.27;;;;;21.70;101160.00;;;;2071929;28;20317;-65
2021/01/18 00:30:00;;;;;;;451.70;291.53;;;;;21.60;101157.00;;;;2079512;28;20218;-65
2021/01/18 00:31:03;;;;;;;464.97;299.70;;;;;21.70;101155.00;;;;2063988;28;20234;-65
2021/01/18 00:32:04;;;;;;;448.88;279.85;;;;;21.60;101144.00;;;;2063776;28;20733;-65
2021/01/18 00:33:04;;;;;;;440.50;277.97;;;;;21.60;101145.00;;;;2071667;28;20282;-65
2021/01/18 00:34:04;;;;;;;418.40;260.50;;;;;21.60;101160.00;;;;2063688;28;20659;-65
2021/01/18 00:35:06;;;;;;;411.57;257.53;;;;;21.60;101150.00;;;;2070674;28;20701;-65
2021/01/18 00:36:06;;;;;;;408.73;254.27;;;;;21.60;101150.00;;;;2063750;28;20745;-65
2021/01/18 00:37:07;;;;;;;401.63;246.77;;;;;21.60;101152.00;;;;2064191;28;20219;-65
2021/01/18 00:38:07;;;;;;;377.70;238.93;;;;;21.60;101149.00;;;;2071360;28;20292;-65
2021/01/18 00:39:07;;;;;;;386.63;234.50;;;;;21.60;101156.00;;;;2066721;28;20582;-65
2021/01/18 00:40:09;;;;;;;369.97;229.07;;;;;21.60;101152.00;;;;2070441;28;20242;-65
2021/01/18 00:41:09;;;;;;;483.98;309.17;;;;;21.50;101144.00;;;;2071277;28;20230;-65
2021/01/18 00:42:13;;;;;;;475.30;300.53;;;;;21.60;101147.00;;;;2071668;28;20674;-65
2021/01/18 00:43:13;;;;;;;422.48;267.13;;;;;21.60;101154.00;;;;2051683;28;20227;-66
2021/01/18 00:44:14;;;;;;;404.07;252.97;;;;;21.60;101149.00;;;;2056809;28;20325;-65
2021/01/18 00:45:16;;;;;;;419.70;256.03;;;;;21.60;101151.00;;;;2073051;28;20218;-65
2021/01/18 00:46:18;;;;;;;387.00;246.07;;;;;21.60;101150.00;;;;2054791;28;20290;-65
2021/01/18 00:47:18;;;;;;;386.85;236.60;;;;;21.60;101154.00;;;;2061227;28;20250;-65
2021/01/18 00:48:18;;;;;;;381.47;228.10;;;;;21.60;101158.00;;;;2065019;28;20241;-65
2021/01/18 00:49:19;;;;;;;355.50;220.33;;;;;21.60;101144.00;;;;2063601;28;20704;-65
2021/01/18 00:50:21;;;;;;;349.37;218.10;;;;;21.60;101141.00;;;;2073315;28;20270;-65
2021/01/18 00:51:21;;;;;;;336.75;206.45;;;;;21.60;101154.00;;;;2068144;28;20713;-65
2021/01/18 00:52:21;;;;;;;341.50;207.77;;;;;21.60;101142.00;;;;2057656;28;20212;-65
2021/01/18 00:53:22;;;;;;;336.90;201.10;;;;;21.50;101146.00;;;;2068198;28;20223;-65
2021/01/18 00:54:22;;;;;;;330.50;198.13;;;;;21.50;101152.00;;;;2066414;28;20219;-65
2021/01/18 00:55:23;;;;;;;321.27;194.47;;;;;21.50;101143.00;;;;2069079;28;20238;-65
2021/01/18 00:56:23;;;;;;;321.47;192.43;;;;;21.50;101145.00;;;;2066493;28;20242;-65
2021/01/18 00:57:31;;;;;;;325.33;187.40;;;;;21.50;101155.00;;;;2066208;28;20219;-65
2021/01/18 00:58:32;;;;;;;317.20;190.82;;;;;21.50;101150.00;;;;2071140;28;20222;-66
2021/01/18 00:59:32;;;;;;;297.67;178.90;;;;;21.50;101146.00;;;;2074867;28;20249;-65
2021/01/18 01:00:35;;;;;;;303.50;180.10;;;;;21.50;101144.00;;;;2063448;28;20215;-65
2021/01/18 01:01:35;;;;;;;287.85;172.50;;;;;21.50;101145.00;;;;2059621;28;20305;-65
2021/01/18 01:02:37;;;;;;;284.50;170.10;;;;;21.50;101138.00;;;;2065246;28;20694;-65
2021/01/18 01:03:37;;;;;;;276.35;162.95;;;;;21.50;101137.00;;;;2067261;28;20225;-65
2021/01/18 01:04:38;;;;;;;276.60;164.93;;;;;21.50;101136.00;;;;2066054;28;20214;-65
2021/01/18 01:05:38;;;;;;;268.17;156.70;;;;;21.50;101137.00;;;;2065715;28;20272;-65
2021/01/18 01:06:38;;;;;;;269.87;159.10;;;;;21.50;101128.00;;;;2074880;28;20301;-65
2021/01/18 01:07:48;;;;;;;261.53;156.77;;;;;21.50;101136.00;;;;2066382;28;20265;-65
2021/01/18 01:08:49;;;;;;;260.85;153.80;;;;;21.40;101113.00;;;;2064747;28;20226;-65
2021/01/18 01:09:49;;;;;;;267.30;153.50;;;;;21.40;101129.00;;;;2069362;28;20277;-65
2021/01/18 01:10:49;;;;;;;254.33;148.77;;;;;21.40;101142.00;;;;2078910;28;20271;-66
2021/01/18 01:11:50;;;;;;;240.57;145.93;;;;;21.50;101136.00;;;;2065706;28;20236;-65
2021/01/18 01:12:57;;;;;;;233.83;141.37;;;;;21.50;101139.00;;;;2076883;28;20214;-65
2021/01/18 01:13:57;;;;;;;227.38;136.90;;;;;21.40;101132.00;;;;2062786;28;20764;-65
2021/01/18 01:14:58;;;;;;;230.57;134.90;;;;;21.40;101133.00;;;;2051336;28;20211;-65
2021/01/18 01:15:58;;;;;;;230.73;138.97;;;;;21.40;101134.00;;;;2054699;28;20216;-65
2021/01/18 01:16:58;;;;;;;226.37;133.87;;;;;21.50;101128.00;;;;2055678;28;20259;-65
2021/01/18 01:17:59;;;;;;;209.23;127.90;;;;;21.40;101125.00;;;;2054860;28;20232;-66
2021/01/18 01:18:59;;;;;;;206.43;129.70;;;;;21.40;101133.00;;;;2045335;28;20216;-65
2021/01/18 01:19:59;;;;;;;225.47;130.60;;;;;21.40;101133.00;;;;2055366;28;20208;-65
2021/01/18 01:21:00;;;;;;;196.70;121.90;;;;;21.40;101135.00;;;;2062988;28;20236;-65
2021/01/18 01:22:00;;;;;;;197.00;121.20;;;;;21.40;101132.00;;;;2055930;28;20220;-65
2021/01/18 01:23:01;;;;;;;188.73;117.80;;;;;21.40;101128.00;;;;2060990;28;20223;-65
2021/01/18 01:24:01;;;;;;;181.20;116.77;;;;;21.40;101127.00;;;;2056033;28;20200;-65
2021/01/18 01:25:02;;;;;;;180.83;116.03;;;;;21.40;101134.00;;;;2060894;28;20207;-65
2021/01/18 01:26:02;;;;;;;192.97;119.80;;;;;21.40;101128.00;;;;2062556;28;20199;-66
2021/01/18 01:27:02;;;;;;;170.23;109.53;;;;;21.40;101129.00;;;;2078982;28;20464;-66
2021/01/18 01:28:03;;;;;;;163.73;106.73;;;;;21.40;101134.00;;;;2072284;28;20292;-65
2021/01/18 01:29:03;;;;;;;188.80;115.00;;;;;21.40;101113.00;;;;2071371;28;20776;-65
2021/01/18 01:30:05;;;;;;;178.17;108.47;;;;;21.40;101129.00;;;;2062381;28;20230;-65
2021/01/18 01:31:05;;;;;;;167.20;105.38;;;;;21.40;101125.00;;;;2054358;28;20230;-65
2021/01/18 01:32:06;;;;;;;174.20;106.77;;;;;21.40;101130.00;;;;2070941;28;20206;-65
2021/01/18 01:33:06;;;;;;;163.20;101.23;;;;;21.40;101124.00;;;;2050840;28;20310;-65
2021/01/18 01:34:06;;;;;;;164.00;98.67;;;;;21.30;101131.00;;;;2063797;28;20219;-65
2021/01/18 01:35:08;;;;;;;156.93;99.73;;;;;21.30;101133.00;;;;2070124;28;20225;-65
2021/01/18 01:36:08;;;;;;;150.35;97.60;;;;;21.30;101138.00;;;;2062558;28;20223;-65
2021/01/18 01:37:08;;;;;;;150.97;96.20;;;;;21.30;101136.00;;;;2062992;28;20293;-65
2021/01/18 01:38:09;;;;;;;156.27;96.00;;;;;21.30;101135.00;;;;2063603;28;20702;-65
2021/01/18 01:39:09;;;;;;;159.10;99.47;;;;;21.30;101135.00;;;;2064733;28;20246;-65
2021/01/18 01:40:10;;;;;;;155.97;97.73;;;;;21.30;101141.00;;;;2071159;28;20203;-65
2021/01/18 01:41:11;;;;;;;144.93;91.00;;;;;21.30;101134.00;;;;2071138;28;20226;-65
2021/01/18 01:42:22;;;;;;;144.90;92.40;;;;;21.30;101138.00;;;;2067718;28;20214;-65
2021/01/18 01:43:22;;;;;;;135.98;87.18;;;;;21.30;101132.00;;;;2061181;28;20250;-65
2021/01/18 01:44:22;;;;;;;144.73;90.60;;;;;21.30;101131.00;;;;2057636;28;20219;-65
2021/01/18 01:45:23;;;;;;;131.40;82.77;;;;;21.30;101127.00;;;;2069790;28;20217;-65
2021/01/18 01:46:23;;;;;;;134.20;83.07;;;;;21.30;101131.00;;;;2071375;28;20636;-65
2021/01/18 01:47:28;;;;;;;134.20;84.40;;;;;21.30;101126.00;;;;2057700;28;20281;-66
2021/01/18 01:48:29;;;;;;;121.25;79.80;;;;;21.30;101130.00;;;;2063838;28;20238;-64
2021/01/18 01:49:29;;;;;;;121.70;77.80;;;;;21.30;101131.00;;;;2069684;28;20210;-65
2021/01/18 01:50:37;;;;;;;128.13;79.73;;;;;21.20;101130.00;;;;2067271;28;20283;-65
2021/01/18 01:51:37;;;;;;;116.95;70.90;;;;;21.30;101113.00;;;;2066516;28;20221;-65
2021/01/18 01:52:44;;;;;;;125.73;79.13;;;;;21.20;101131.00;;;;2063163;28;20258;-65
2021/01/18 01:53:45;;;;;;;117.22;72.65;;;;;21.20;101139.00;;;;2071182;28;21203;-65
2021/01/18 01:54:45;;;;;;;107.70;67.73;;;;;21.20;101137.00;;;;2076064;28;20317;-66
2021/01/18 01:55:45;;;;;;;110.63;69.77;;;;;21.20;101136.00;;;;2065504;28;20297;-65
2021/01/18 01:56:46;;;;;;;111.27;69.23;;;;;21.20;101130.00;;;;2060536;28;20227;-65
2021/01/18 01:57:46;;;;;;;118.00;70.10;;;;;21.20;101130.00;;;;2057130;28;20223;-65
2021/01/18 01:58:46;;;;;;;109.20;69.63;;;;;21.20;101134.00;;;;2068910;28;20219;-65
2021/01/18 01:59:47;;;;;;;108.20;68.20;;;;;21.20;101128.00;;;;2065966;28;20247;-65
2021/01/18 02:00:47;;;;;;;105.33;64.03;;;;;21.20;101143.00;;;;2068684;28;20230;-65
2021/01/18 02:01:47;;;;;;;101.40;63.93;;;;;21.20;101136.00;;;;2057042;28;20322;-65
2021/01/18 02:02:48;;;;;;;102.13;62.00;;;;;21.20;101126.00;;;;2060665;28;20304;-65
2021/01/18 02:03:49;;;;;;;100.73;62.80;;;;;21.20;101148.00;;;;2060737;28;20215;-65
2021/01/18 02:04:49;;;;;;;95.20;61.23;;;;;21.20;101137.00;;;;2054501;28;20816;-65
2021/01/18 02:05:53;;;;;;;98.30;61.17;;;;;21.20;101133.00;;;;2055079;28;21013;-65
2021/01/18 02:06:53;;;;;;;101.38;61.55;;;;;21.20;101123.00;;;;2070007;28;20937;-65
2021/01/18 02:07:58;;;;;;;95.07;59.63;;;;;21.20;101125.00;;;;2055665;28;21747;-65
2021/01/18 02:08:58;;;;;;;93.78;58.08;;;;;21.20;101140.00;;;;2047491;28;20216;-65
2021/01/18 02:09:58;;;;;;;92.60;57.80;;;;;21.20;101121.00;;;;2069975;28;20229;-65
2021/01/18 02:10:59;;;;;;;86.73;56.97;;;;;21.20;101125.00;;;;2063597;28;20215;-65
2021/01/18 02:12:00;;;;;;;89.73;57.97;;;;;21.10;101129.00;;;;2062961;28;20222;-65
2021/01/18 02:13:01;;;;;;;91.60;59.13;;;;;21.10;101127.00;;;;2062358;28;20221;-65
2021/01/18 02:14:19;;;;;;;86.18;55.35;;;;;21.10;101131.00;;;;2063147;28;20218;-65
2021/01/18 02:15:27;;;;;;;88.07;55.60;;;;;21.10;101131.00;;;;2069865;28;20690;-65
2021/01/18 02:16:41;;;;;;;84.78;54.80;;;;;21.20;101121.00;;;;2064303;28;20221;-65
2021/01/18 02:18:27;;;;;;;82.90;51.75;;;;;21.10;101126.00;;;;2063389;28;20218;-65
2021/01/18 02:19:36;;;;;;;87.25;51.28;;;;;21.20;101128.00;;;;2064412;28;20237;-65
2021/01/18 02:20:58;;;;;;;70.97;48.65;;;;;21.10;101117.00;;;;2067863;28;20215;-65
2021/01/18 02:22:19;;;;;;;72.22;45.45;;;;;21.10;101118.00;;;;2063918;28;20297;-65
2021/01/18 02:23:38;;;;;;;80.93;48.90;;;;;21.10;101129.00;;;;2065740;28;20258;-65
2021/01/18 02:25:06;;;;;;;72.65;46.95;;;;;21.10;101122.00;;;;2066004;28;20222;-65
2021/01/18 02:26:20;;;;;;;67.38;45.17;;;;;21.10;101131.00;;;;2071050;28;20225;-65
2021/01/18 02:27:26;;;;;;;69.93;46.42;;;;;21.10;101120.00;;;;2066944;28;20232;-65
2021/01/18 02:28:34;;;;;;;62.10;42.45;;;;;21.10;101131.00;;;;2058942;28;20211;-66
2021/01/18 02:30:16;;;;;;;63.85;43.67;;;;;21.10;101119.00;;;;2066671;28;20227;-65
2021/01/18 02:31:49;;;;;;;64.97;43.90;;;;;21.10;101126.00;;;;2069930;28;20257;-65
2021/01/18 02:33:15;;;;;;;68.03;41.45;;;;;21.10;101117.00;;;;2060490;28;20247;-64
2021/01/18 02:34:46;;;;;;;59.00;39.83;;;;;21.10;101122.00;;;;2039859;28;20218;-65
2021/01/18 02:35:53;;;;;;;63.40;40.90;;;;;21.10;101117.00;;;;2060113;28;20229;-65
2021/01/18 02:37:02;;;;;;;56.75;39.15;;;;;21.00;101119.00;;;;2062286;28;20791;-65
2021/01/18 02:38:31;;;;;;;57.88;38.17;;;;;21.00;101115.00;;;;2063481;28;20218;-65
2021/01/18 02:40:01;;;;;;;58.90;40.10;;;;;21.00;101119.00;;;;2061990;28;20210;-65
2021/01/18 02:41:10;;;;;;;55.05;37.50;;;;;21.00;101121.00;;;;2058397;28;20277;-65
2021/01/18 02:42:30;;;;;;;53.63;37.33;;;;;21.00;101113.00;;;;2067111;28;20225;-65
2021/01/18 02:43:33;;;;;;;52.05;35.88;;;;;21.00;101123.00;;;;2066013;28;20348;-65
2021/01/18 02:44:34;;;;;;;50.30;35.45;;;;;21.00;101122.00;;;;2046213;28;20311;-65
2021/01/18 02:45:34;;;;;;;52.83;36.43;;;;;21.00;101128.00;;;;2054290;28;20226;-65
2021/01/18 02:46:36;;;;;;;49.60;35.60;;;;;21.00;101123.00;;;;2059023;28;20679;-65
2021/01/18 02:47:36;;;;;;;47.15;33.30;;;;;21.00;101118.00;;;;2054577;28;20723;-65
2021/01/18 02:48:36;;;;;;;50.70;35.30;;;;;21.00;101124.00;;;;2042308;28;20220;-65
2021/01/18 02:49:37;;;;;;;49.33;34.47;;;;;21.00;101116.00;;;;2050980;28;20247;-65
2021/01/18 02:50:37;;;;;;;47.07;32.80;;;;;21.00;101118.00;;;;2062357;28;20219;-65
2021/01/18 02:51:43;;;;;;;47.30;33.10;;;;;21.00;101117.00;;;;2062530;28;20795;-65
2021/01/18 02:52:43;;;;;;;43.45;30.80;;;;;21.00;101127.00;;;;2075476;28;20209;-66
2021/01/18 02:53:59;;;;;;;47.53;33.40;;;;;21.00;101117.00;;;;2065296;28;20614;-65
2021/01/18 02:54:59;;;;;;;48.25;31.85;;;;;21.00;101117.00;;;;2062161;28;20309;-65
2021/01/18 02:56:00;;;;;;;44.00;30.73;;;;;20.90;101114.00;;;;2069509;28;20210;-65
2021/01/18 02:57:00;;;;;;;46.43;31.17;;;;;21.00;101124.00;;;;2069946;28;20269;-65
2021/01/18 02:58:03;;;;;;;43.80;30.73;;;;;21.00;101122.00;;;;2054294;28;20215;-65
2021/01/18 02:59:04;;;;;;;42.88;30.52;;;;;20.90;101128.00;;;;2059708;28;20215;-65
2021/01/18 03:00:07;;;;;;;40.53;29.60;;;;;20.90;101132.00;;;;2046742;28;21068;-65
2021/01/18 03:01:29;;;;;;;41.20;28.98;;;;;20.90;101122.00;;;;2051725;28;20298;-65
2021/01/18 03:02:40;;;;;;;43.63;30.92;;;;;20.90;101124.00;;;;2060654;28;20253;-65
2021/01/18 03:03:49;;;;;;;45.50;30.65;;;;;20.90;101137.00;;;;2061362;28;20294;-65
2021/01/18 03:05:17;;;;;;;39.25;27.75;;;;;20.90;101126.00;;;;2067921;28;20215;-65
2021/01/18 03:06:21;;;;;;;39.00;28.10;;;;;20.90;101123.00;;;;2061144;28;20794;-66
2021/01/18 03:07:42;;;;;;;40.17;27.98;;;;;20.90;101125.00;;;;2068193;28;20989;-65
2021/01/18 03:08:43;;;;;;;37.75;25.35;;;;;20.90;101130.00;;;;2062587;28;20242;-65
2021/01/18 03:09:49;;;;;;;40.55;26.25;;;;;20.90;101124.00;;;;2067795;28;20696;-66
2021/01/18 03:10:59;;;;;;;39.30;26.70;;;;;20.90;101130.00;;;;2056996;28;20234;-65
2021/01/18 03:12:03;;;;;;;33.83;24.20;;;;;20.90;101123.00;;;;2070145;28;20716;-65
2021/01/18 03:13:16;;;;;;;33.85;24.00;;;;;20.90;101126.00;;;;2054154;28;20216;-66
2021/01/18 03:14:23;;;;;;;37.00;27.17;;;;;20.90;101130.00;;;;2057741;28;20208;-65
2021/01/18 03:15:24;;;;;;;38.00;24.38;;;;;20.90;101120.00;;;;2063055;28;20254;-66
2021/01/18 03:16:26;;;;;;;31.77;23.70;;;;;20.90;101130.00;;;;2068044;28;20280;-65
2021/01/18 03:17:27;;;;;;;28.17;22.15;;;;;20.90;101138.00;;;;2063398;28;20674;-65
2021/01/18 03:18:27;;;;;;;34.23;25.23;;;;;20.90;101110.00;;;;2067344;28;20237;-65
2021/01/18 03:19:39;;;;;;;33.77;24.07;;;;;20.90;101134.00;;;;2070461;28;21149;-65
2021/01/18 03:20:39;;;;;;;30.40;22.88;;;;;20.90;101133.00;;;;2058837;28;20306;-64
2021/01/18 03:21:46;;;;;;;34.20;24.53;;;;;20.90;101134.00;;;;2059088;28;20215;-65
2021/01/18 03:22:46;;;;;;;34.45;24.25;;;;;20.90;101136.00;;;;2062223;28;20218;-66
2021/01/18 03:23:46;;;;;;;39.10;25.57;;;;;20.90;101125.00;;;;2054495;28;20215;-65
2021/01/18 03:24:47;;;;;;;31.87;21.27;;;;;20.90;101141.00;;;;2053440;28;20223;-65
2021/01/18 03:25:51;;;;;;;35.30;24.30;;;;;20.90;101133.00;;;;2055236;28;20212;-65
2021/01/18 03:26:52;;;;;;;32.30;22.83;;;;;20.80;101129.00;;;;2053665;28;20218;-65
2021/01/18 03:27:58;;;;;;;29.60;21.70;;;;;20.80;101130.00;;;;2057796;28;20334;-65
2021/01/18 03:28:58;;;;;;;30.67;22.13;;;;;20.80;101129.00;;;;2062252;28;20429;-65
2021/01/18 03:29:59;;;;;;;24.23;19.60;;;;;20.90;101124.00;;;;2069707;28;20272;-65
2021/01/18 03:30:59;;;;;;;29.50;21.40;;;;;20.80;101124.00;;;;2063475;28;20702;-65
2021/01/18 03:31:59;;;;;;;25.77;19.13;;;;;20.80;101130.00;;;;2070437;28;20581;-65
2021/01/18 03:33:00;;;;;;;27.13;19.13;;;;;20.80;101125.00;;;;2063507;28;20746;-64
2021/01/18 03:34:00;;;;;;;26.40;19.30;;;;;20.80;101121.00;;;;2070666;28;20641;-65
2021/01/18 03:35:00;;;;;;;26.23;19.50;;;;;20.80;101126.00;;;;2062880;28;20752;-65
2021/01/18 03:36:01;;;;;;;26.50;19.10;;;;;20.80;101129.00;;;;2070647;28;20218;-65
2021/01/18 03:37:02;;;;;;;26.07;18.53;;;;;20.80;101122.00;;;;2062469;28;20222;-64
2021/01/18 03:38:02;;;;;;;25.20;17.85;;;;;20.90;101118.00;;;;2070078;28;20234;-65
2021/01/18 03:39:03;;;;;;;26.60;18.83;;;;;20.80;101125.00;;;;2062612;28;20304;-65
2021/01/18 03:40:03;;;;;;;26.97;19.00;;;;;20.80;101120.00;;;;2062312;28;20221;-65
2021/01/18 03:41:04;;;;;;;24.40;17.23;;;;;20.80;101120.00;;;;2070010;28;20226;-66
2021/01/18 03:42:04;;;;;;;25.17;18.53;;;;;20.80;101123.00;;;;2070550;28;20453;-65
2021/01/18 03:43:06;;;;;;;23.10;17.97;;;;;20.80;101118.00;;;;2077750;28;20710;-65
2021/01/18 03:44:07;;;;;;;24.63;18.63;;;;;20.80;101118.00;;;;2067160;28;20625;-65
2021/01/18 03:45:07;;;;;;;22.83;17.30;;;;;20.80;101123.00;;;;2069553;28;20305;-65
2021/01/18 03:46:08;;;;;;;24.50;16.40;;;;;20.80;101120.00;;;;2070702;28;20280;-65
2021/01/18 03:47:08;;;;;;;25.87;19.63;;;;;20.80;101112.00;;;;2070488;28;20225;-65
2021/01/18 03:48:09;;;;;;;24.20;17.60;;;;;20.80;101112.00;;;;2063268;28;20271;-65
2021/01/18 03:49:09;;;;;;;21.27;16.33;;;;;20.80;101113.00;;;;2069612;28;20333;-65
2021/01/18 03:50:11;;;;;;;21.47;17.43;;;;;20.80;101116.00;;;;2063015;28;20235;-65
2021/01/18 03:51:11;;;;;;;25.13;17.15;;;;;20.80;101121.00;;;;2069256;28;20574;-65
2021/01/18 03:52:12;;;;;;;23.10;16.30;;;;;20.80;101118.00;;;;2063267;28;20261;-65
2021/01/18 03:53:12;;;;;;;22.27;16.50;;;;;20.80;101119.00;;;;2059769;28;20217;-64
2021/01/18 03:54:12;;;;;;;21.70;17.13;;;;;20.80;101123.00;;;;2063382;28;20747;-65
2021/01/18 03:55:13;;;;;;;24.33;15.47;;;;;20.80;101126.00;;;;2075405;28;20220;-65
2021/01/18 03:56:13;;;;;;;22.77;16.93;;;;;20.80;101121.00;;;;2053284;28;20905;-65
2021/01/18 03:57:14;;;;;;;22.33;15.10;;;;;20.70;101123.00;;;;2054331;28;20254;-65
2021/01/18 03:58:14;;;;;;;17.97;14.17;;;;;20.80;101116.00;;;;2062431;28;20223;-65
2021/01/18 03:59:15;;;;;;;21.93;15.30;;;;;20.80;101120.00;;;;2063719;28;20310;-65
2021/01/18 04:00:16;;;;;;;21.43;15.77;;;;;20.80;101122.00;;;;2068479;28;20222;-65
2021/01/18 04:01:16;;;;;;;20.13;15.45;;;;;20.70;101117.00;;;;2053568;28;20734;-65
2021/01/18 04:02:16;;;;;;;23.43;15.70;;;;;20.70;101118.00;;;;2055214;28;20219;-65
2021/01/18 04:03:19;;;;;;;19.17;14.93;;;;;20.70;101121.00;;;;2061783;28;20219;-65
2021/01/18 04:04:19;;;;;;;21.70;14.27;;;;;20.70;101123.00;;;;2063688;28;20272;-65
2021/01/18 04:05:20;;;;;;;19.37;14.30;;;;;20.70;101119.00;;;;2068695;28;20710;-65
2021/01/18 04:06:20;;;;;;;19.83;14.00;;;;;20.70;101126.00;;;;2064477;28;20320;-65
2021/01/18 04:07:21;;;;;;;17.80;13.83;;;;;20.70;101120.00;;;;2068286;28;20219;-65
2021/01/18 04:08:21;;;;;;;18.50;13.77;;;;;20.70;101119.00;;;;2064947;28;20251;-65
2021/01/18 04:09:21;;;;;;;17.77;14.73;;;;;20.70;101128.00;;;;2067961;28;20234;-65
2021/01/18 04:10:24;;;;;;;16.97;13.67;;;;;20.70;101120.00;;;;2065204;28;20222;-65
2021/01/18 04:11:24;;;;;;;20.30;14.05;;;;;20.70;101124.00;;;;2067520;28;20318;-65
2021/01/18 04:12:24;;;;;;;20.17;15.10;;;;;20.70;101124.00;;;;2054108;28;20722;-65
2021/01/18 04:13:25;;;;;;;18.83;14.03;;;;;20.70;101127.00;;;;2063185;28;20804;-65
2021/01/18 04:14:25;;;;;;;19.67;14.83;;;;;20.70;101128.00;;;;2070174;28;20774;-65
2021/01/18 04:15:26;;;;;;;20.80;14.40;;;;;20.70;101129.00;;;;2070141;28;20701;-65
2021/01/18 04:16:26;;;;;;;15.47;12.93;;;;;20.70;101134.00;;;;2074803;28;20729;-65
2021/01/18 04:17:26;;;;;;;16.97;12.80;;;;;20.70;101132.00;;;;2058641;28;20214;-65
2021/01/18 04:18:27;;;;;;;16.00;13.17;;;;;20.70;101132.00;;;;2065061;28;20229;-65
2021/01/18 04:19:27;;;;;;;18.00;14.07;;;;;20.70;101126.00;;;;2066879;28;20211;-65
2021/01/18 04:20:27;;;;;;;19.17;13.73;;;;;20.70;101134.00;;;;2065237;28;20277;-65
2021/01/18 04:21:28;;;;;;;16.17;12.60;;;;;20.70;101129.00;;;;2067611;28;20288;-65
2021/01/18 04:22:28;;;;;;;19.43;13.63;;;;;20.60;101124.00;;;;2066065;28;20225;-65
2021/01/18 04:23:28;;;;;;;19.13;13.67;;;;;20.60;101126.00;;;;2067548;28;20269;-66
2021/01/18 04:24:29;;;;;;;13.80;12.07;;;;;20.70;101133.00;;;;2065782;28;20225;-65
2021/01/18 04:25:29;;;;;;;16.50;12.57;;;;;20.60;101124.00;;;;2067187;28;20211;-65
2021/01/18 04:26:30;;;;;;;18.50;12.57;;;;;20.60;101127.00;;;;2052642;28;20238;-66
2021/01/18 04:27:30;;;;;;;17.77;12.60;;;;;20.70;101124.00;;;;2046023;28;20310;-65
2021/01/18 04:28:30;;;;;;;18.40;12.50;;;;;20.70;101109.00;;;;2065677;28;20688;-66
2021/01/18 04:29:31;;;;;;;16.50;12.30;;;;;20.70;101130.00;;;;2066549;28;20660;-65
2021/01/18 04:30:33;;;;;;;17.60;12.90;;;;;20.60;101126.00;;;;2061952;28;20570;-65
2021/01/18 04:31:38;;;;;;;13.40;11.00;;;;;20.60;101118.00;;;;2065339;28;20218;-65
2021/01/18 04:32:39;;;;;;;14.07;11.68;;;;;20.60;101126.00;;;;2062193;28;20222;-65
2021/01/18 04:33:39;;;;;;;16.77;12.00;;;;;20.60;101121.00;;;;2066660;28;20214;-65
2021/01/18 04:34:39;;;;;;;18.00;12.40;;;;;20.60;101119.00;;;;2064918;28;20254;-65
2021/01/18 04:35:40;;;;;;;15.10;11.27;;;;;20.60;101119.00;;;;2065812;28;22022;-65
2021/01/18 04:36:40;;;;;;;14.70;12.20;;;;;20.60;101118.00;;;;2062895;28;20222;-65
2021/01/18 04:37:40;;;;;;;15.17;11.43;;;;;20.60;101118.00;;;;2066861;28;20217;-65
2021/01/18 04:38:41;;;;;;;12.47;10.90;;;;;20.60;101119.00;;;;2065201;28;20222;-65
2021/01/18 04:39:41;;;;;;;13.97;11.07;;;;;20.60;101125.00;;;;2070128;28;20716;-65
2021/01/18 04:40:42;;;;;;;13.43;10.50;;;;;20.60;101119.00;;;;2075220;28;20213;-65
2021/01/18 04:41:44;;;;;;;17.05;11.95;;;;;20.60;101134.00;;;;2061984;28;20226;-65
2021/01/18 04:42:44;;;;;;;14.55;11.18;;;;;20.60;101126.00;;;;2054383;28;20255;-65
2021/01/18 04:43:45;;;;;;;13.03;10.67;;;;;20.60;101127.00;;;;2064971;28;20706;-65
2021/01/18 04:44:45;;;;;;;16.23;11.33;;;;;20.60;101136.00;;;;2069442;28;20577;-65
2021/01/18 04:45:46;;;;;;;15.50;11.73;;;;;20.60;101115.00;;;;2069794;28;20453;-65
2021/01/18 04:46:46;;;;;;;15.80;10.90;;;;;20.60;101126.00;;;;2058031;28;20220;-65
2021/01/18 04:47:48;;;;;;;12.13;10.40;;;;;20.60;101121.00;;;;2061866;28;20223;-65
2021/01/18 04:48:48;;;;;;;13.48;10.70;;;;;20.60;101126.00;;;;2062025;28;20218;-65
2021/01/18 04:49:49;;;;;;;15.20;10.27;;;;;20.60;101112.00;;;;2046110;28;20658;-65
2021/01/18 04:50:49;;;;;;;14.10;11.03;;;;;20.60;101117.00;;;;2046014;28;20823;-64
2021/01/18 04:51:53;;;;;;;13.50;11.07;;;;;20.60;101124.00;;;;2051956;28;20222;-65
2021/01/18 04:52:54;;;;;;;14.00;10.50;;;;;20.60;101112.00;;;;2055975;28;20219;-65
2021/01/18 04:53:55;;;;;;;13.80;10.95;;;;;20.60;101113.00;;;;2068906;28;20210;-65
2021/01/18 04:54:55;;;;;;;12.43;9.53;;;;;20.50;101105.00;;;;2054747;28;20213;-65
2021/01/18 04:56:10;;;;;;;14.30;10.80;;;;;20.60;101111.00;;;;2053873;28;20238;-65
2021/01/18 04:57:14;;;;;;;12.70;10.00;;;;;20.60;101114.00;;;;2054761;28;20256;-65
2021/01/18 04:58:16;;;;;;;12.35;9.98;;;;;20.60;101109.00;;;;2045003;28;20256;-65
2021/01/18 04:59:19;;;;;;;12.35;10.25;;;;;20.60;101112.00;;;;2047747;28;20219;-65
2021/01/18 05:00:20;;;;;;;14.05;11.00;;;;;20.60;101111.00;;;;2052247;28;20743;-65
2021/01/18 05:01:20;;;;;;;12.03;9.40;;;;;20.60;101105.00;;;;2038118;28;20217;-65